Time;durP1;ratioP1;P1;durP2;ratioP2;P2;SDS_P1;SDS_P2;PMS_P1;PMS_P2;Temp;Humidity;BMP_temperature;BMP_pressure;BME280_temperature;BME280_humidity;BME280_pressure;Samples;Min_cycle;Max_cycle;Signal;HPM_P1;HPM_P2
2020/02/02 00:01:12;;;;;;;3.2;1.1;;;;;;;;;;;;;
2020/02/02 00:03:37;;;;;;;2.4;0.9;;;;;;;;;;;;;
2020/02/02 00:06:02;;;;;;;3.7;1.1;;;;;;;;;;;;;
2020/02/02 00:08:27;;;;;;;2.3;1;;;;;;;;;;;;;
2020/02/02 00:10:52;;;;;;;2.9;1;;;;;;;;;;;;;
2020/02/02 00:13:17;;;;;;;2.3;0.9;;;;;;;;;;;;;
2020/02/02 00:15:42;;;;;;;2.4;1;;;;;;;;;;;;;
2020/02/02 00:18:07;;;;;;;3.8;1.2;;;;;;;;;;;;;
2020/02/02 00:20:32;;;;;;;3.7;1.1;;;;;;;;;;;;;
2020/02/02 00:22:57;;;;;;;3.8;1.1;;;;;;;;;;;;;
2020/02/02 00:25:23;;;;;;;3.3;1.3;;;;;;;;;;;;;
2020/02/02 00:32:41;;;;;;;7.1;1.7;;;;;;;;;;;;;
2020/02/02 00:35:03;;;;;;;9.8;1.9;;;;;;;;;;;;;
2020/02/02 00:37:28;;;;;;;5.1;1.7;;;;;;;;;;;;;
2020/02/02 00:39:53;;;;;;;4.5;1.3;;;;;;;;;;;;;
2020/02/02 00:42:19;;;;;;;7;1.7;;;;;;;;;;;;;
2020/02/02 00:44:44;;;;;;;3.4;1;;;;;;;;;;;;;
2020/02/02 00:47:09;;;;;;;2.8;1;;;;;;;;;;;;;
2020/02/02 00:49:34;;;;;;;1.9;0.7;;;;;;;;;;;;;
2020/02/02 00:51:59;;;;;;;2.3;0.8;;;;;;;;;;;;;
2020/02/02 00:54:28;;;;;;;1.4;0.7;;;;;;;;;;;;;
2020/02/02 00:56:53;;;;;;;2.3;0.9;;;;;;;;;;;;;
2020/02/02 00:59:18;;;;;;;2.7;0.7;;;;;;;;;;;;;
2020/02/02 01:01:43;;;;;;;1.1;0.5;;;;;;;;;;;;;
2020/02/02 01:04:08;;;;;;;1.8;0.6;;;;;;;;;;;;;
2020/02/02 01:06:33;;;;;;;1.2;0.6;;;;;;;;;;;;;
2020/02/02 01:08:58;;;;;;;1.8;0.8;;;;;;;;;;;;;
2020/02/02 01:11:24;;;;;;;2;0.8;;;;;;;;;;;;;
2020/02/02 01:13:49;;;;;;;1.4;0.6;;;;;;;;;;;;;
2020/02/02 01:16:14;;;;;;;2.3;0.8;;;;;;;;;;;;;
2020/02/02 01:18:39;;;;;;;0.9;0.6;;;;;;;;;;;;;
2020/02/02 01:23:29;;;;;;;1.1;0.6;;;;;;;;;;;;;
2020/02/02 01:25:54;;;;;;;2.5;0.8;;;;;;;;;;;;;
2020/02/02 01:28:20;;;;;;;2.6;0.9;;;;;;;;;;;;;
2020/02/02 01:30:56;;;;;;;1.9;0.7;;;;;;;;;;;;;
2020/02/02 01:33:12;;;;;;;2.4;0.9;;;;;;;;;;;;;
2020/02/02 01:35:34;;;;;;;2.9;0.9;;;;;;;;;;;;;
2020/02/02 01:38:00;;;;;;;3.9;1.2;;;;;;;;;;;;;
2020/02/02 01:40:25;;;;;;;2.5;1;;;;;;;;;;;;;
2020/02/02 01:42:50;;;;;;;3.5;1.1;;;;;;;;;;;;;
2020/02/02 01:45:15;;;;;;;2.6;0.8;;;;;;;;;;;;;
2020/02/02 01:47:40;;;;;;;1.9;1;;;;;;;;;;;;;
2020/02/02 01:50:05;;;;;;;2.1;1;;;;;;;;;;;;;
2020/02/02 01:52:30;;;;;;;4.1;0.9;;;;;;;;;;;;;
2020/02/02 01:54:56;;;;;;;2.4;0.9;;;;;;;;;;;;;
2020/02/02 01:57:21;;;;;;;3.3;1.1;;;;;;;;;;;;;
2020/02/02 01:59:46;;;;;;;2.6;0.9;;;;;;;;;;;;;
2020/02/02 02:02:11;;;;;;;2.8;0.8;;;;;;;;;;;;;
2020/02/02 02:04:36;;;;;;;2.5;0.9;;;;;;;;;;;;;
2020/02/02 02:07:01;;;;;;;2.9;0.9;;;;;;;;;;;;;
2020/02/02 02:09:26;;;;;;;2.9;0.9;;;;;;;;;;;;;
2020/02/02 02:11:51;;;;;;;3.2;1;;;;;;;;;;;;;
2020/02/02 02:14:16;;;;;;;2.6;1;;;;;;;;;;;;;
2020/02/02 02:16:41;;;;;;;4.1;1;;;;;;;;;;;;;
2020/02/02 02:19:06;;;;;;;3.1;1;;;;;;;;;;;;;
2020/02/02 02:21:32;;;;;;;2.7;1;;;;;;;;;;;;;
2020/02/02 02:23:57;;;;;;;4;1;;;;;;;;;;;;;
2020/02/02 02:26:22;;;;;;;1.9;0.9;;;;;;;;;;;;;
2020/02/02 02:28:47;;;;;;;3.3;1;;;;;;;;;;;;;
2020/02/02 02:31:12;;;;;;;3.3;1;;;;;;;;;;;;;
2020/02/02 02:33:37;;;;;;;3.1;0.9;;;;;;;;;;;;;
2020/02/02 02:36:02;;;;;;;1.6;0.8;;;;;;;;;;;;;
2020/02/02 02:38:27;;;;;;;2;0.8;;;;;;;;;;;;;
2020/02/02 02:40:52;;;;;;;2.3;0.9;;;;;;;;;;;;;
2020/02/02 02:43:18;;;;;;;2.1;0.8;;;;;;;;;;;;;
2020/02/02 02:45:43;;;;;;;2.7;0.7;;;;;;;;;;;;;
2020/02/02 02:50:34;;;;;;;2.3;0.9;;;;;;;;;;;;;
2020/02/02 02:52:58;;;;;;;1.6;0.6;;;;;;;;;;;;;
2020/02/02 02:55:23;;;;;;;1.2;0.6;;;;;;;;;;;;;
2020/02/02 02:57:48;;;;;;;1.6;0.7;;;;;;;;;;;;;
2020/02/02 03:00:13;;;;;;;0.9;0.5;;;;;;;;;;;;;
2020/02/02 03:02:38;;;;;;;1.6;0.4;;;;;;;;;;;;;
2020/02/02 03:05:03;;;;;;;1.8;0.5;;;;;;;;;;;;;
2020/02/02 03:07:29;;;;;;;1.3;0.5;;;;;;;;;;;;;
2020/02/02 03:09:54;;;;;;;1.2;0.6;;;;;;;;;;;;;
2020/02/02 03:12:19;;;;;;;1.1;0.5;;;;;;;;;;;;;
2020/02/02 03:14:44;;;;;;;1.1;0.4;;;;;;;;;;;;;
2020/02/02 03:17:09;;;;;;;1.1;0.5;;;;;;;;;;;;;
2020/02/02 03:19:34;;;;;;;1.6;0.5;;;;;;;;;;;;;
2020/02/02 03:21:59;;;;;;;1.1;0.4;;;;;;;;;;;;;
2020/02/02 03:24:24;;;;;;;1.1;0.5;;;;;;;;;;;;;
2020/02/02 03:26:49;;;;;;;1;0.4;;;;;;;;;;;;;
2020/02/02 03:29:15;;;;;;;0.9;0.4;;;;;;;;;;;;;
2020/02/02 03:32:04;;;;;;;1;0.4;;;;;;;;;;;;;
2020/02/02 03:35:25;;;;;;;1.8;0.4;;;;;;;;;;;;;
2020/02/02 03:36:37;;;;;;;1.3;0.4;;;;;;;;;;;;;
2020/02/02 03:38:55;;;;;;;0.9;0.5;;;;;;;;;;;;;
2020/02/02 03:41:20;;;;;;;1.7;0.6;;;;;;;;;;;;;
2020/02/02 03:43:45;;;;;;;1.6;0.6;;;;;;;;;;;;;
2020/02/02 03:46:10;;;;;;;1.8;0.7;;;;;;;;;;;;;
2020/02/02 03:48:36;;;;;;;1.8;0.6;;;;;;;;;;;;;
2020/02/02 03:51:01;;;;;;;2;0.8;;;;;;;;;;;;;
2020/02/02 03:53:26;;;;;;;2.4;0.9;;;;;;;;;;;;;
2020/02/02 03:55:51;;;;;;;1.4;0.8;;;;;;;;;;;;;
2020/02/02 03:58:27;;;;;;;3.1;1;;;;;;;;;;;;;
2020/02/02 04:02:28;;;;;;;1.9;0.9;;;;;;;8.33;100;958.5647;;;;
2020/02/02 04:04:53;;;;;;;3.1;1;;;;;;;8.32;100;958.6643;;;;
2020/02/02 04:07:19;;;;;;;2.2;0.8;;;;;;;8.3;100;958.7034;;;;
2020/02/02 04:09:43;;;;;;;3.8;1.2;;;;;;;8.27;100;958.6678;;;;
2020/02/02 04:12:52;;;;;;;3.5;1.1;;;;;;;8.24;100;958.6232;;;;
2020/02/02 04:14:39;;;;;;;2.4;1;;;;;;;8.26;100;958.6717;;;;
2020/02/02 04:16:58;;;;;;;2.6;1.1;;;;;;;8.32;100;958.6449;;;;
2020/02/02 04:19:24;;;;;;;1.9;0.9;;;;;;;8.34;100;958.6355;;;;
2020/02/02 04:21:49;;;;;;;2.6;1;;;;;;;8.35;100;958.6027;;;;
2020/02/02 04:24:14;;;;;;;4;0.9;;;;;;;8.34;100;958.6753;;;;
2020/02/02 04:26:40;;;;;;;2.2;0.9;;;;;;;8.38;100;958.7877;;;;
2020/02/02 04:29:05;;;;;;;2.3;0.9;;;;;;;8.39;100;958.7314;;;;
2020/02/02 04:31:30;;;;;;;3.8;1.1;;;;;;;8.43;100;958.6778;;;;
2020/02/02 04:33:55;;;;;;;3.2;0.9;;;;;;;8.42;100;958.6152;;;;
2020/02/02 04:36:20;;;;;;;2.6;0.9;;;;;;;8.44;100;958.5248;;;;
2020/02/02 04:38:45;;;;;;;2.7;0.8;;;;;;;8.5;100;958.4817;;;;
2020/02/02 04:41:10;;;;;;;2.3;0.7;;;;;;;8.53;100;958.4386;;;;
2020/02/02 04:43:35;;;;;;;2.8;0.7;;;;;;;8.55;100;958.4705;;;;
2020/02/02 04:46:00;;;;;;;3;0.9;;;;;;;8.53;100;958.5865;;;;
2020/02/02 04:48:25;;;;;;;3.2;1.1;;;;;;;8.53;100;958.493;;;;
2020/02/02 04:50:50;;;;;;;1.7;0.8;;;;;;;8.56;100;958.4792;;;;
2020/02/02 04:53:15;;;;;;;2.5;0.8;;;;;;;8.57;100;958.4841;;;;
2020/02/02 04:55:41;;;;;;;2;0.6;;;;;;;8.56;100;958.3865;;;;
2020/02/02 04:58:06;;;;;;;1.4;0.6;;;;;;;8.56;100;958.5158;;;;
2020/02/02 05:00:31;;;;;;;1;0.5;;;;;;;8.61;100;958.5541;;;;
2020/02/02 05:02:56;;;;;;;3.4;0.8;;;;;;;8.55;100;958.4714;;;;
2020/02/02 05:05:21;;;;;;;1.9;0.7;;;;;;;8.48;100;958.4973;;;;
2020/02/02 05:07:46;;;;;;;3.1;0.7;;;;;;;8.45;100;958.4308;;;;
2020/02/02 05:10:11;;;;;;;2.6;0.5;;;;;;;8.41;100;958.3894;;;;
2020/02/02 05:12:36;;;;;;;1.7;0.6;;;;;;;8.4;100;958.3409;;;;
2020/02/02 05:15:01;;;;;;;2;0.6;;;;;;;8.44;100;958.3859;;;;
2020/02/02 05:17:26;;;;;;;2;0.7;;;;;;;8.44;100;958.3681;;;;
